sensor_id;sensor_type;location;lat;lon;timestamp;P1;durP1;ratioP1;P2;durP2;ratioP2
78453;SDS011;67750;55.832;49.124;2023-04-25T00:01:29;6.65;;;3.00;;
78453;SDS011;67750;55.832;49.124;2023-04-25T00:04:00;7.60;;;3.33;;
78453;SDS011;67750;55.832;49.124;2023-04-25T00:06:30;8.40;;;3.05;;
78453;SDS011;67750;55.832;49.124;2023-04-25T00:08:59;8.33;;;3.08;;
78453;SDS011;67750;55.832;49.124;2023-04-25T00:11:29;8.55;;;3.33;;
78453;SDS011;67750;55.832;49.124;2023-04-25T00:13:59;7.60;;;3.42;;
78453;SDS011;67750;55.832;49.124;2023-04-25T00:16:29;11.30;;;3.60;;
78453;SDS011;67750;55.832;49.124;2023-04-25T00:19:01;12.80;;;3.75;;
78453;SDS011;67750;55.832;49.124;2023-04-25T00:21:31;6.80;;;3.10;;
78453;SDS011;67750;55.832;49.124;2023-04-25T00:24:00;5.20;;;3.40;;
78453;SDS011;67750;55.832;49.124;2023-04-25T00:26:30;8.55;;;3.40;;
78453;SDS011;67750;55.832;49.124;2023-04-25T00:29:00;6.75;;;3.27;;
78453;SDS011;67750;55.832;49.124;2023-04-25T00:31:29;6.30;;;3.47;;
78453;SDS011;67750;55.832;49.124;2023-04-25T00:33:59;11.63;;;3.77;;
78453;SDS011;67750;55.832;49.124;2023-04-25T00:36:29;9.48;;;3.83;;
78453;SDS011;67750;55.832;49.124;2023-04-25T00:38:58;6.60;;;3.70;;
78453;SDS011;67750;55.832;49.124;2023-04-25T00:41:28;6.70;;;3.40;;
78453;SDS011;67750;55.832;49.124;2023-04-25T00:43:58;8.80;;;3.87;;
78453;SDS011;67750;55.832;49.124;2023-04-25T00:46:28;8.85;;;3.33;;
78453;SDS011;67750;55.832;49.124;2023-04-25T00:48:58;10.63;;;3.62;;
78453;SDS011;67750;55.832;49.124;2023-04-25T00:51:27;9.60;;;3.77;;
78453;SDS011;67750;55.832;49.124;2023-04-25T00:53:57;9.43;;;3.65;;
78453;SDS011;67750;55.832;49.124;2023-04-25T00:56:27;6.25;;;3.67;;
78453;SDS011;67750;55.832;49.124;2023-04-25T00:58:57;11.78;;;4.30;;
78453;SDS011;67750;55.832;49.124;2023-04-25T01:01:26;8.20;;;4.25;;
78453;SDS011;67750;55.832;49.124;2023-04-25T01:03:58;14.05;;;4.12;;
78453;SDS011;67750;55.832;49.124;2023-04-25T01:08:56;10.28;;;4.12;;
78453;SDS011;67750;55.832;49.124;2023-04-25T01:11:26;9.70;;;4.35;;
78453;SDS011;67750;55.832;49.124;2023-04-25T01:13:57;11.08;;;4.05;;
78453;SDS011;67750;55.832;49.124;2023-04-25T01:16:27;9.20;;;4.17;;
78453;SDS011;67750;55.832;49.124;2023-04-25T01:18:57;6.60;;;4.20;;
78453;SDS011;67750;55.832;49.124;2023-04-25T01:21:26;9.33;;;4.00;;
78453;SDS011;67750;55.832;49.124;2023-04-25T01:23:57;10.75;;;4.60;;
78453;SDS011;67750;55.832;49.124;2023-04-25T01:26:27;11.55;;;4.42;;
78453;SDS011;67750;55.832;49.124;2023-04-25T01:28:57;13.25;;;4.95;;
78453;SDS011;67750;55.832;49.124;2023-04-25T01:31:28;11.43;;;4.92;;
78453;SDS011;67750;55.832;49.124;2023-04-25T01:33:58;9.05;;;4.83;;
78453;SDS011;67750;55.832;49.124;2023-04-25T01:36:28;10.60;;;4.00;;
78453;SDS011;67750;55.832;49.124;2023-04-25T01:38:58;9.13;;;4.12;;
78453;SDS011;67750;55.832;49.124;2023-04-25T01:41:29;7.35;;;4.25;;
78453;SDS011;67750;55.832;49.124;2023-04-25T01:43:58;12.68;;;4.42;;
78453;SDS011;67750;55.832;49.124;2023-04-25T01:46:29;8.78;;;3.95;;
78453;SDS011;67750;55.832;49.124;2023-04-25T01:48:59;12.93;;;4.17;;
78453;SDS011;67750;55.832;49.124;2023-04-25T01:51:29;8.90;;;3.90;;
78453;SDS011;67750;55.832;49.124;2023-04-25T01:53:59;10.18;;;4.25;;
78453;SDS011;67750;55.832;49.124;2023-04-25T01:59:19;11.90;;;4.80;;
78453;SDS011;67750;55.832;49.124;2023-04-25T02:02:09;14.90;;;4.87;;
78453;SDS011;67750;55.832;49.124;2023-04-25T02:04:38;14.80;;;5.05;;
78453;SDS011;67750;55.832;49.124;2023-04-25T02:07:08;7.78;;;4.00;;
78453;SDS011;67750;55.832;49.124;2023-04-25T02:09:40;15.08;;;4.22;;
78453;SDS011;67750;55.832;49.124;2023-04-25T02:14:59;13.72;;;4.97;;
78453;SDS011;67750;55.832;49.124;2023-04-25T02:17:50;14.20;;;4.80;;
78453;SDS011;67750;55.832;49.124;2023-04-25T02:20:21;9.53;;;4.47;;
78453;SDS011;67750;55.832;49.124;2023-04-25T02:22:50;15.75;;;5.03;;
78453;SDS011;67750;55.832;49.124;2023-04-25T02:25:21;17.20;;;5.15;;
78453;SDS011;67750;55.832;49.124;2023-04-25T02:27:50;20.10;;;5.25;;
78453;SDS011;67750;55.832;49.124;2023-04-25T02:30:20;17.90;;;6.35;;
78453;SDS011;67750;55.832;49.124;2023-04-25T02:32:50;19.90;;;5.80;;
78453;SDS011;67750;55.832;49.124;2023-04-25T02:35:19;17.77;;;6.20;;
78453;SDS011;67750;55.832;49.124;2023-04-25T02:37:49;17.90;;;5.70;;
78453;SDS011;67750;55.832;49.124;2023-04-25T02:40:18;22.13;;;6.08;;
78453;SDS011;67750;55.832;49.124;2023-04-25T02:42:48;22.07;;;5.80;;
78453;SDS011;67750;55.832;49.124;2023-04-25T02:45:18;19.98;;;6.45;;
78453;SDS011;67750;55.832;49.124;2023-04-25T02:47:49;17.87;;;6.30;;
78453;SDS011;67750;55.832;49.124;2023-04-25T02:50:19;20.27;;;6.62;;
78453;SDS011;67750;55.832;49.124;2023-04-25T02:52:48;14.73;;;5.80;;
78453;SDS011;67750;55.832;49.124;2023-04-25T02:57:49;15.13;;;6.42;;
78453;SDS011;67750;55.832;49.124;2023-04-25T03:00:20;10.85;;;4.20;;
78453;SDS011;67750;55.832;49.124;2023-04-25T03:02:50;9.85;;;3.72;;
78453;SDS011;67750;55.832;49.124;2023-04-25T03:05:21;11.03;;;5.25;;
78453;SDS011;67750;55.832;49.124;2023-04-25T03:07:50;12.85;;;4.40;;
78453;SDS011;67750;55.832;49.124;2023-04-25T03:10:20;7.55;;;3.92;;
78453;SDS011;67750;55.832;49.124;2023-04-25T03:12:49;10.30;;;4.90;;
78453;SDS011;67750;55.832;49.124;2023-04-25T03:15:19;8.90;;;4.45;;
78453;SDS011;67750;55.832;49.124;2023-04-25T03:17:49;10.45;;;4.17;;
78453;SDS011;67750;55.832;49.124;2023-04-25T03:20:18;9.00;;;4.30;;
78453;SDS011;67750;55.832;49.124;2023-04-25T03:22:48;12.88;;;4.22;;
78453;SDS011;67750;55.832;49.124;2023-04-25T03:25:18;10.50;;;4.10;;
78453;SDS011;67750;55.832;49.124;2023-04-25T03:27:48;9.05;;;4.22;;
78453;SDS011;67750;55.832;49.124;2023-04-25T03:30:18;10.78;;;3.65;;
78453;SDS011;67750;55.832;49.124;2023-04-25T03:32:48;11.38;;;4.72;;
78453;SDS011;67750;55.832;49.124;2023-04-25T03:35:17;11.08;;;3.90;;
78453;SDS011;67750;55.832;49.124;2023-04-25T03:37:47;9.85;;;4.22;;
78453;SDS011;67750;55.832;49.124;2023-04-25T03:40:18;13.05;;;3.77;;
78453;SDS011;67750;55.832;49.124;2023-04-25T03:42:50;15.43;;;4.10;;
78453;SDS011;67750;55.832;49.124;2023-04-25T03:45:19;7.37;;;4.05;;
78453;SDS011;67750;55.832;49.124;2023-04-25T03:47:49;10.58;;;4.03;;
78453;SDS011;67750;55.832;49.124;2023-04-25T03:50:19;9.23;;;4.33;;
78453;SDS011;67750;55.832;49.124;2023-04-25T03:55:32;6.10;;;3.60;;
78453;SDS011;67750;55.832;49.124;2023-04-25T03:58:02;12.05;;;4.62;;
78453;SDS011;67750;55.832;49.124;2023-04-25T04:00:32;13.78;;;4.45;;
78453;SDS011;67750;55.832;49.124;2023-04-25T04:03:02;8.85;;;3.80;;
78453;SDS011;67750;55.832;49.124;2023-04-25T04:05:33;15.95;;;4.28;;
78453;SDS011;67750;55.832;49.124;2023-04-25T04:08:02;11.18;;;3.47;;
78453;SDS011;67750;55.832;49.124;2023-04-25T04:10:32;15.30;;;4.10;;
78453;SDS011;67750;55.832;49.124;2023-04-25T04:13:02;11.97;;;3.60;;
78453;SDS011;67750;55.832;49.124;2023-04-25T04:15:32;9.08;;;3.60;;
78453;SDS011;67750;55.832;49.124;2023-04-25T04:18:02;7.70;;;3.10;;
78453;SDS011;67750;55.832;49.124;2023-04-25T04:20:33;10.40;;;3.25;;
78453;SDS011;67750;55.832;49.124;2023-04-25T04:23:02;14.38;;;3.70;;
78453;SDS011;67750;55.832;49.124;2023-04-25T04:25:32;9.55;;;3.70;;
78453;SDS011;67750;55.832;49.124;2023-04-25T04:28:22;5.90;;;3.22;;
78453;SDS011;67750;55.832;49.124;2023-04-25T04:31:13;10.00;;;3.80;;
78453;SDS011;67750;55.832;49.124;2023-04-25T04:33:44;10.00;;;3.00;;
78453;SDS011;67750;55.832;49.124;2023-04-25T04:36:14;8.88;;;3.65;;
78453;SDS011;67750;55.832;49.124;2023-04-25T04:38:46;13.35;;;5.05;;
78453;SDS011;67750;55.832;49.124;2023-04-25T04:41:17;16.35;;;3.55;;
78453;SDS011;67750;55.832;49.124;2023-04-25T04:44:06;9.95;;;3.17;;
78453;SDS011;67750;55.832;49.124;2023-04-25T04:46:55;10.15;;;3.50;;
78453;SDS011;67750;55.832;49.124;2023-04-25T04:49:45;6.65;;;3.52;;
78453;SDS011;67750;55.832;49.124;2023-04-25T04:55:30;11.12;;;3.50;;
78453;SDS011;67750;55.832;49.124;2023-04-25T04:58:19;11.65;;;4.10;;
78453;SDS011;67750;55.832;49.124;2023-04-25T05:01:08;11.65;;;3.70;;
78453;SDS011;67750;55.832;49.124;2023-04-25T05:03:58;12.88;;;3.50;;
78453;SDS011;67750;55.832;49.124;2023-04-25T05:12:47;11.20;;;3.58;;
78453;SDS011;67750;55.832;49.124;2023-04-25T05:15:36;9.03;;;3.30;;
78453;SDS011;67750;55.832;49.124;2023-04-25T05:18:26;9.20;;;3.37;;
78453;SDS011;67750;55.832;49.124;2023-04-25T05:21:15;9.13;;;3.52;;
78453;SDS011;67750;55.832;49.124;2023-04-25T05:24:05;11.48;;;3.58;;
78453;SDS011;67750;55.832;49.124;2023-04-25T05:26:54;16.27;;;3.60;;
78453;SDS011;67750;55.832;49.124;2023-04-25T05:29:44;12.37;;;3.50;;
78453;SDS011;67750;55.832;49.124;2023-04-25T05:32:33;7.70;;;3.30;;
78453;SDS011;67750;55.832;49.124;2023-04-25T05:35:04;13.20;;;3.65;;
78453;SDS011;67750;55.832;49.124;2023-04-25T05:37:35;11.78;;;3.40;;
78453;SDS011;67750;55.832;49.124;2023-04-25T05:40:24;16.60;;;3.95;;
78453;SDS011;67750;55.832;49.124;2023-04-25T05:42:56;13.08;;;3.98;;
78453;SDS011;67750;55.832;49.124;2023-04-25T05:45:45;7.15;;;3.60;;
78453;SDS011;67750;55.832;49.124;2023-04-25T05:48:34;25.57;;;4.08;;
78453;SDS011;67750;55.832;49.124;2023-04-25T05:51:24;12.13;;;4.05;;
78453;SDS011;67750;55.832;49.124;2023-04-25T05:54:14;8.73;;;3.20;;
78453;SDS011;67750;55.832;49.124;2023-04-25T05:56:44;16.67;;;3.70;;
78453;SDS011;67750;55.832;49.124;2023-04-25T05:59:13;11.18;;;2.40;;
78453;SDS011;67750;55.832;49.124;2023-04-25T06:01:43;12.95;;;3.22;;
78453;SDS011;67750;55.832;49.124;2023-04-25T06:04:13;11.95;;;2.83;;
78453;SDS011;67750;55.832;49.124;2023-04-25T06:06:43;9.83;;;3.22;;
78453;SDS011;67750;55.832;49.124;2023-04-25T06:09:12;11.80;;;3.22;;
78453;SDS011;67750;55.832;49.124;2023-04-25T06:11:42;9.35;;;2.87;;
78453;SDS011;67750;55.832;49.124;2023-04-25T06:14:12;8.68;;;3.17;;
78453;SDS011;67750;55.832;49.124;2023-04-25T06:16:43;11.35;;;2.65;;
78453;SDS011;67750;55.832;49.124;2023-04-25T06:19:12;7.22;;;2.67;;
78453;SDS011;67750;55.832;49.124;2023-04-25T06:21:43;8.25;;;2.50;;
78453;SDS011;67750;55.832;49.124;2023-04-25T06:24:12;4.85;;;2.08;;
78453;SDS011;67750;55.832;49.124;2023-04-25T06:26:42;8.20;;;2.75;;
78453;SDS011;67750;55.832;49.124;2023-04-25T06:29:11;9.15;;;2.50;;
78453;SDS011;67750;55.832;49.124;2023-04-25T06:31:41;5.85;;;2.15;;
78453;SDS011;67750;55.832;49.124;2023-04-25T06:34:10;6.78;;;2.17;;
78453;SDS011;67750;55.832;49.124;2023-04-25T06:36:40;8.30;;;2.33;;
78453;SDS011;67750;55.832;49.124;2023-04-25T06:39:12;7.95;;;2.50;;
78453;SDS011;67750;55.832;49.124;2023-04-25T06:41:41;6.45;;;2.40;;
78453;SDS011;67750;55.832;49.124;2023-04-25T06:44:12;8.68;;;2.58;;
78453;SDS011;67750;55.832;49.124;2023-04-25T06:46:44;6.55;;;2.10;;
78453;SDS011;67750;55.832;49.124;2023-04-25T06:49:14;7.47;;;2.42;;
78453;SDS011;67750;55.832;49.124;2023-04-25T06:51:43;7.75;;;2.47;;
78453;SDS011;67750;55.832;49.124;2023-04-25T06:54:13;9.63;;;2.60;;
78453;SDS011;67750;55.832;49.124;2023-04-25T06:56:44;10.30;;;2.98;;
78453;SDS011;67750;55.832;49.124;2023-04-25T06:59:15;8.53;;;2.20;;
78453;SDS011;67750;55.832;49.124;2023-04-25T07:04:16;11.85;;;2.70;;
78453;SDS011;67750;55.832;49.124;2023-04-25T07:07:05;9.43;;;2.50;;
78453;SDS011;67750;55.832;49.124;2023-04-25T07:09:54;6.95;;;2.25;;
78453;SDS011;67750;55.832;49.124;2023-04-25T07:12:24;10.78;;;2.72;;
78453;SDS011;67750;55.832;49.124;2023-04-25T07:14:55;8.50;;;2.70;;
78453;SDS011;67750;55.832;49.124;2023-04-25T07:17:24;10.05;;;2.52;;
78453;SDS011;67750;55.832;49.124;2023-04-25T07:19:54;7.97;;;2.67;;
78453;SDS011;67750;55.832;49.124;2023-04-25T07:22:23;8.08;;;2.50;;
78453;SDS011;67750;55.832;49.124;2023-04-25T07:24:53;11.50;;;3.10;;
78453;SDS011;67750;55.832;49.124;2023-04-25T07:27:23;11.78;;;3.25;;
78453;SDS011;67750;55.832;49.124;2023-04-25T07:29:54;14.28;;;3.77;;
78453;SDS011;67750;55.832;49.124;2023-04-25T07:32:25;12.00;;;3.50;;
78453;SDS011;67750;55.832;49.124;2023-04-25T07:34:55;12.93;;;3.50;;
78453;SDS011;67750;55.832;49.124;2023-04-25T07:37:24;11.60;;;3.42;;
78453;SDS011;67750;55.832;49.124;2023-04-25T07:39:55;13.80;;;3.80;;
78453;SDS011;67750;55.832;49.124;2023-04-25T07:42:25;9.08;;;3.42;;
78453;SDS011;67750;55.832;49.124;2023-04-25T07:44:55;12.15;;;3.77;;
78453;SDS011;67750;55.832;49.124;2023-04-25T07:47:25;10.65;;;3.08;;
78453;SDS011;67750;55.832;49.124;2023-04-25T07:49:54;11.65;;;3.40;;
78453;SDS011;67750;55.832;49.124;2023-04-25T07:52:25;12.35;;;3.45;;
78453;SDS011;67750;55.832;49.124;2023-04-25T07:54:56;10.23;;;3.65;;
78453;SDS011;67750;55.832;49.124;2023-04-25T07:57:27;17.45;;;3.40;;
78453;SDS011;67750;55.832;49.124;2023-04-25T07:59:57;9.65;;;2.98;;
78453;SDS011;67750;55.832;49.124;2023-04-25T08:02:28;12.15;;;2.80;;
78453;SDS011;67750;55.832;49.124;2023-04-25T08:04:58;7.15;;;2.55;;
78453;SDS011;67750;55.832;49.124;2023-04-25T08:07:27;7.53;;;2.80;;
78453;SDS011;67750;55.832;49.124;2023-04-25T08:09:58;7.67;;;2.80;;
78453;SDS011;67750;55.832;49.124;2023-04-25T08:12:29;9.80;;;2.67;;
78453;SDS011;67750;55.832;49.124;2023-04-25T08:14:58;10.75;;;2.95;;
78453;SDS011;67750;55.832;49.124;2023-04-25T08:20:01;8.73;;;1.95;;
78453;SDS011;67750;55.832;49.124;2023-04-25T08:22:33;12.98;;;2.27;;
78453;SDS011;67750;55.832;49.124;2023-04-25T08:25:23;9.98;;;2.55;;
78453;SDS011;67750;55.832;49.124;2023-04-25T08:27:53;7.70;;;2.55;;
78453;SDS011;67750;55.832;49.124;2023-04-25T08:30:24;7.80;;;2.52;;
78453;SDS011;67750;55.832;49.124;2023-04-25T08:32:54;12.15;;;2.70;;
78453;SDS011;67750;55.832;49.124;2023-04-25T08:35:43;14.63;;;2.70;;
78453;SDS011;67750;55.832;49.124;2023-04-25T08:38:14;11.12;;;2.75;;
78453;SDS011;67750;55.832;49.124;2023-04-25T08:40:43;7.40;;;2.75;;
78453;SDS011;67750;55.832;49.124;2023-04-25T08:43:15;5.65;;;2.33;;
78453;SDS011;67750;55.832;49.124;2023-04-25T08:45:46;5.92;;;2.37;;
78453;SDS011;67750;55.832;49.124;2023-04-25T08:48:18;9.08;;;2.35;;
78453;SDS011;67750;55.832;49.124;2023-04-25T08:53:38;6.58;;;2.20;;
78453;SDS011;67750;55.832;49.124;2023-04-25T08:56:09;6.45;;;2.10;;
78453;SDS011;67750;55.832;49.124;2023-04-25T08:58:40;6.72;;;2.50;;
78453;SDS011;67750;55.832;49.124;2023-04-25T09:01:11;8.38;;;2.92;;
78453;SDS011;67750;55.832;49.124;2023-04-25T09:03:42;9.43;;;2.72;;
78453;SDS011;67750;55.832;49.124;2023-04-25T09:06:14;10.70;;;3.27;;
78453;SDS011;67750;55.832;49.124;2023-04-25T09:08:44;13.65;;;2.90;;
78453;SDS011;67750;55.832;49.124;2023-04-25T09:11:13;10.68;;;2.80;;
78453;SDS011;67750;55.832;49.124;2023-04-25T09:13:43;10.55;;;2.92;;
78453;SDS011;67750;55.832;49.124;2023-04-25T09:16:33;6.15;;;2.80;;
78453;SDS011;67750;55.832;49.124;2023-04-25T09:19:22;6.95;;;2.60;;
78453;SDS011;67750;55.832;49.124;2023-04-25T09:21:54;9.03;;;3.67;;
78453;SDS011;67750;55.832;49.124;2023-04-25T09:27:17;12.35;;;3.50;;
78453;SDS011;67750;55.832;49.124;2023-04-25T09:29:45;11.10;;;3.50;;
78453;SDS011;67750;55.832;49.124;2023-04-25T09:35:04;12.03;;;3.80;;
78453;SDS011;67750;55.832;49.124;2023-04-25T09:37:35;13.68;;;3.80;;
78453;SDS011;67750;55.832;49.124;2023-04-25T09:40:24;10.60;;;3.12;;
78453;SDS011;67750;55.832;49.124;2023-04-25T09:46:08;10.50;;;3.05;;
78453;SDS011;67750;55.832;49.124;2023-04-25T09:48:37;11.40;;;3.83;;
78453;SDS011;67750;55.832;49.124;2023-04-25T09:53:58;11.15;;;3.95;;
78453;SDS011;67750;55.832;49.124;2023-04-25T09:56:51;9.35;;;3.98;;
78453;SDS011;67750;55.832;49.124;2023-04-25T09:59:22;11.50;;;3.72;;
78453;SDS011;67750;55.832;49.124;2023-04-25T10:01:53;10.05;;;4.00;;
78453;SDS011;67750;55.832;49.124;2023-04-25T10:04:27;11.63;;;3.90;;
78453;SDS011;67750;55.832;49.124;2023-04-25T10:10:07;15.72;;;3.90;;
78453;SDS011;67750;55.832;49.124;2023-04-25T10:12:38;10.40;;;4.25;;
78453;SDS011;67750;55.832;49.124;2023-04-25T10:15:09;7.75;;;3.65;;
78453;SDS011;67750;55.832;49.124;2023-04-25T10:17:40;12.35;;;4.03;;
78453;SDS011;67750;55.832;49.124;2023-04-25T10:20:10;11.45;;;3.70;;
78453;SDS011;67750;55.832;49.124;2023-04-25T10:25:29;7.72;;;3.20;;
78453;SDS011;67750;55.832;49.124;2023-04-25T10:27:59;7.83;;;3.22;;
78453;SDS011;67750;55.832;49.124;2023-04-25T10:30:29;14.85;;;3.35;;
78453;SDS011;67750;55.832;49.124;2023-04-25T10:32:59;11.78;;;3.25;;
78453;SDS011;67750;55.832;49.124;2023-04-25T10:35:29;6.78;;;3.42;;
78453;SDS011;67750;55.832;49.124;2023-04-25T10:46:47;9.60;;;3.12;;
78453;SDS011;67750;55.832;49.124;2023-04-25T10:54:57;13.65;;;3.27;;
78453;SDS011;67750;55.832;49.124;2023-04-25T11:00:18;6.35;;;2.50;;
78453;SDS011;67750;55.832;49.124;2023-04-25T11:05:38;8.75;;;2.77;;
78453;SDS011;67750;55.832;49.124;2023-04-25T11:08:11;6.47;;;2.52;;
78453;SDS011;67750;55.832;49.124;2023-04-25T11:10:41;12.05;;;2.87;;
78453;SDS011;67750;55.832;49.124;2023-04-25T11:13:12;7.67;;;2.87;;
78453;SDS011;67750;55.832;49.124;2023-04-25T11:15:41;9.05;;;2.58;;
78453;SDS011;67750;55.832;49.124;2023-04-25T11:18:15;5.55;;;2.12;;
78453;SDS011;67750;55.832;49.124;2023-04-25T11:20:42;9.68;;;2.95;;
78453;SDS011;67750;55.832;49.124;2023-04-25T11:23:12;12.45;;;3.30;;
78453;SDS011;67750;55.832;49.124;2023-04-25T11:25:42;8.58;;;2.77;;
78453;SDS011;67750;55.832;49.124;2023-04-25T11:28:12;8.03;;;2.50;;
78453;SDS011;67750;55.832;49.124;2023-04-25T11:30:47;8.83;;;2.72;;
78453;SDS011;67750;55.832;49.124;2023-04-25T11:33:12;7.30;;;2.87;;
78453;SDS011;67750;55.832;49.124;2023-04-25T11:35:41;11.35;;;3.12;;
78453;SDS011;67750;55.832;49.124;2023-04-25T11:38:11;8.98;;;3.10;;
78453;SDS011;67750;55.832;49.124;2023-04-25T11:40:40;8.90;;;3.52;;
78453;SDS011;67750;55.832;49.124;2023-04-25T11:43:10;6.90;;;2.35;;
78453;SDS011;67750;55.832;49.124;2023-04-25T11:45:40;10.28;;;3.02;;
78453;SDS011;67750;55.832;49.124;2023-04-25T11:48:09;11.48;;;3.58;;
78453;SDS011;67750;55.832;49.124;2023-04-25T11:50:39;9.80;;;3.22;;
78453;SDS011;67750;55.832;49.124;2023-04-25T11:53:08;8.28;;;3.70;;
78453;SDS011;67750;55.832;49.124;2023-04-25T11:55:38;12.45;;;3.08;;
78453;SDS011;67750;55.832;49.124;2023-04-25T11:58:07;9.68;;;2.92;;
78453;SDS011;67750;55.832;49.124;2023-04-25T12:00:37;10.10;;;2.70;;
78453;SDS011;67750;55.832;49.124;2023-04-25T12:03:08;7.58;;;2.45;;
78453;SDS011;67750;55.832;49.124;2023-04-25T12:05:38;6.78;;;2.60;;
78453;SDS011;67750;55.832;49.124;2023-04-25T12:10:57;7.75;;;2.67;;
78453;SDS011;67750;55.832;49.124;2023-04-25T12:13:26;9.28;;;2.52;;
78453;SDS011;67750;55.832;49.124;2023-04-25T12:15:56;5.47;;;2.77;;
78453;SDS011;67750;55.832;49.124;2023-04-25T12:18:26;9.95;;;3.10;;
78453;SDS011;67750;55.832;49.124;2023-04-25T12:20:55;15.80;;;3.22;;
78453;SDS011;67750;55.832;49.124;2023-04-25T12:23:26;13.95;;;3.25;;
78453;SDS011;67750;55.832;49.124;2023-04-25T12:25:55;6.25;;;2.75;;
78453;SDS011;67750;55.832;49.124;2023-04-25T12:28:25;8.45;;;2.50;;
78453;SDS011;67750;55.832;49.124;2023-04-25T12:33:44;5.78;;;2.80;;
78453;SDS011;67750;55.832;49.124;2023-04-25T12:36:14;7.78;;;2.30;;
78453;SDS011;67750;55.832;49.124;2023-04-25T12:38:44;10.90;;;3.20;;
78453;SDS011;67750;55.832;49.124;2023-04-25T12:41:13;9.18;;;3.00;;
78453;SDS011;67750;55.832;49.124;2023-04-25T12:43:43;6.95;;;2.92;;
78453;SDS011;67750;55.832;49.124;2023-04-25T12:46:13;14.40;;;3.50;;
78453;SDS011;67750;55.832;49.124;2023-04-25T12:48:42;11.22;;;3.90;;
78453;SDS011;67750;55.832;49.124;2023-04-25T12:51:12;10.63;;;3.60;;
78453;SDS011;67750;55.832;49.124;2023-04-25T12:53:41;8.03;;;3.10;;
78453;SDS011;67750;55.832;49.124;2023-04-25T12:56:11;8.85;;;2.83;;
78453;SDS011;67750;55.832;49.124;2023-04-25T12:58:40;10.60;;;3.30;;
78453;SDS011;67750;55.832;49.124;2023-04-25T13:01:12;6.58;;;2.87;;
78453;SDS011;67750;55.832;49.124;2023-04-25T13:03:41;8.53;;;3.25;;
78453;SDS011;67750;55.832;49.124;2023-04-25T13:06:11;11.40;;;3.40;;
78453;SDS011;67750;55.832;49.124;2023-04-25T13:08:41;7.65;;;2.60;;
78453;SDS011;67750;55.832;49.124;2023-04-25T13:11:10;9.45;;;2.87;;
78453;SDS011;67750;55.832;49.124;2023-04-25T13:13:41;6.22;;;3.25;;
78453;SDS011;67750;55.832;49.124;2023-04-25T13:16:11;7.95;;;2.90;;
78453;SDS011;67750;55.832;49.124;2023-04-25T13:19:00;8.95;;;2.85;;
78453;SDS011;67750;55.832;49.124;2023-04-25T13:21:30;8.30;;;3.10;;
78453;SDS011;67750;55.832;49.124;2023-04-25T13:24:00;8.45;;;3.00;;
78453;SDS011;67750;55.832;49.124;2023-04-25T13:26:29;7.00;;;2.83;;
78453;SDS011;67750;55.832;49.124;2023-04-25T13:28:59;7.58;;;3.30;;
78453;SDS011;67750;55.832;49.124;2023-04-25T13:31:32;9.03;;;3.70;;
78453;SDS011;67750;55.832;49.124;2023-04-25T13:34:02;10.82;;;3.55;;
78453;SDS011;67750;55.832;49.124;2023-04-25T13:36:31;15.70;;;6.75;;
78453;SDS011;67750;55.832;49.124;2023-04-25T13:39:01;16.60;;;6.53;;
78453;SDS011;67750;55.832;49.124;2023-04-25T13:41:31;14.53;;;6.25;;
78453;SDS011;67750;55.832;49.124;2023-04-25T13:44:01;14.28;;;5.08;;
78453;SDS011;67750;55.832;49.124;2023-04-25T13:46:31;8.63;;;4.17;;
78453;SDS011;67750;55.832;49.124;2023-04-25T13:52:15;13.70;;;3.95;;
78453;SDS011;67750;55.832;49.124;2023-04-25T13:54:45;13.25;;;3.40;;
78453;SDS011;67750;55.832;49.124;2023-04-25T13:57:14;10.90;;;3.70;;
78453;SDS011;67750;55.832;49.124;2023-04-25T13:59:44;11.18;;;3.62;;
78453;SDS011;67750;55.832;49.124;2023-04-25T14:02:14;12.80;;;3.70;;
78453;SDS011;67750;55.832;49.124;2023-04-25T14:04:43;12.45;;;3.98;;
78453;SDS011;67750;55.832;49.124;2023-04-25T14:07:13;9.75;;;3.52;;
78453;SDS011;67750;55.832;49.124;2023-04-25T14:10:03;13.93;;;3.27;;
78453;SDS011;67750;55.832;49.124;2023-04-25T14:12:34;8.55;;;3.37;;
78453;SDS011;67750;55.832;49.124;2023-04-25T14:15:04;13.35;;;3.65;;
78453;SDS011;67750;55.832;49.124;2023-04-25T14:17:34;13.30;;;3.20;;
78453;SDS011;67750;55.832;49.124;2023-04-25T14:20:04;11.80;;;3.50;;
78453;SDS011;67750;55.832;49.124;2023-04-25T14:22:35;9.60;;;3.35;;
78453;SDS011;67750;55.832;49.124;2023-04-25T14:25:06;9.00;;;3.35;;
78453;SDS011;67750;55.832;49.124;2023-04-25T14:27:36;8.05;;;3.77;;
78453;SDS011;67750;55.832;49.124;2023-04-25T14:30:05;11.05;;;3.67;;
78453;SDS011;67750;55.832;49.124;2023-04-25T14:32:37;9.58;;;2.87;;
78453;SDS011;67750;55.832;49.124;2023-04-25T14:37:35;10.08;;;3.85;;
78453;SDS011;67750;55.832;49.124;2023-04-25T14:40:05;10.53;;;4.00;;
78453;SDS011;67750;55.832;49.124;2023-04-25T14:42:55;5.72;;;2.65;;
78453;SDS011;67750;55.832;49.124;2023-04-25T14:45:24;9.75;;;4.33;;
78453;SDS011;67750;55.832;49.124;2023-04-25T14:47:54;14.55;;;6.90;;
78453;SDS011;67750;55.832;49.124;2023-04-25T14:50:24;15.55;;;4.22;;
78453;SDS011;67750;55.832;49.124;2023-04-25T14:52:53;8.03;;;4.42;;
78453;SDS011;67750;55.832;49.124;2023-04-25T14:55:24;8.55;;;3.40;;
78453;SDS011;67750;55.832;49.124;2023-04-25T14:57:54;8.05;;;4.30;;
78453;SDS011;67750;55.832;49.124;2023-04-25T15:00:24;7.05;;;4.12;;
78453;SDS011;67750;55.832;49.124;2023-04-25T15:02:55;8.73;;;3.77;;
78453;SDS011;67750;55.832;49.124;2023-04-25T15:05:24;8.45;;;3.30;;
78453;SDS011;67750;55.832;49.124;2023-04-25T15:07:54;8.70;;;3.45;;
78453;SDS011;67750;55.832;49.124;2023-04-25T15:10:23;11.05;;;3.77;;
78453;SDS011;67750;55.832;49.124;2023-04-25T15:12:55;8.78;;;3.62;;
78453;SDS011;67750;55.832;49.124;2023-04-25T15:15:25;8.50;;;3.35;;
78453;SDS011;67750;55.832;49.124;2023-04-25T15:17:55;8.38;;;3.22;;
78453;SDS011;67750;55.832;49.124;2023-04-25T15:20:24;8.75;;;4.35;;
78453;SDS011;67750;55.832;49.124;2023-04-25T15:22:54;8.58;;;3.98;;
78453;SDS011;67750;55.832;49.124;2023-04-25T15:25:24;11.80;;;4.10;;
78453;SDS011;67750;55.832;49.124;2023-04-25T15:27:55;7.90;;;3.85;;
78453;SDS011;67750;55.832;49.124;2023-04-25T15:30:25;10.28;;;4.15;;
78453;SDS011;67750;55.832;49.124;2023-04-25T15:32:54;9.85;;;4.80;;
78453;SDS011;67750;55.832;49.124;2023-04-25T15:35:24;9.35;;;4.65;;
78453;SDS011;67750;55.832;49.124;2023-04-25T15:37:53;13.80;;;5.50;;
78453;SDS011;67750;55.832;49.124;2023-04-25T15:40:23;13.58;;;5.40;;
78453;SDS011;67750;55.832;49.124;2023-04-25T15:42:53;8.98;;;4.80;;
78453;SDS011;67750;55.832;49.124;2023-04-25T15:45:23;10.03;;;4.60;;
78453;SDS011;67750;55.832;49.124;2023-04-25T15:47:54;9.00;;;3.87;;
78453;SDS011;67750;55.832;49.124;2023-04-25T15:50:24;8.90;;;4.72;;
78453;SDS011;67750;55.832;49.124;2023-04-25T15:52:54;7.28;;;4.05;;
78453;SDS011;67750;55.832;49.124;2023-04-25T15:55:24;9.50;;;4.17;;
78453;SDS011;67750;55.832;49.124;2023-04-25T15:57:53;10.72;;;4.65;;
78453;SDS011;67750;55.832;49.124;2023-04-25T16:00:23;8.33;;;3.92;;
78453;SDS011;67750;55.832;49.124;2023-04-25T16:02:53;7.17;;;4.25;;
78453;SDS011;67750;55.832;49.124;2023-04-25T16:05:22;8.05;;;4.40;;
78453;SDS011;67750;55.832;49.124;2023-04-25T16:07:52;9.20;;;4.12;;
78453;SDS011;67750;55.832;49.124;2023-04-25T16:10:21;10.48;;;4.58;;
78453;SDS011;67750;55.832;49.124;2023-04-25T16:12:51;8.30;;;4.20;;
78453;SDS011;67750;55.832;49.124;2023-04-25T16:15:20;8.95;;;4.62;;